Time;durP1;ratioP1;P1;durP2;ratioP2;P2;SDS_P1;SDS_P2;PMS_P1;PMS_P2;Temp;Humidity;BMP_temperature;BMP_pressure;BME280_temperature;BME280_humidity;BME280_pressure;Samples;Min_cycle;Max_cycle;Signal;HPM_P1;HPM_P2
2023/04/18 06:45:50;;;;;;;29.13;17.63;;;6.70;99.90;;;;;;5131317;27;20291;-77
2023/04/18 06:56:58;;;;;;;31.03;20.17;;;6.60;99.90;;;;;;5131488;27;20273;-78
2023/04/18 07:04:33;;;;;;;30.53;19.00;;;6.80;99.90;;;;;;5131652;27;20283;-77
2023/04/18 07:12:58;;;;;;;28.60;19.43;;;7.10;99.90;;;;;;5010698;28;20537;-78
2023/04/18 07:20:22;;;;;;;27.97;19.07;;;6.90;99.90;;;;;;5090609;28;20546;-77
2023/04/18 07:25:30;;;;;;;28.40;19.70;;;7.10;99.90;;;;;;5131697;27;20294;-78
2023/04/18 07:32:03;;;;;;;24.83;18.20;;;7.20;99.90;;;;;;5072112;28;20551;-78
2023/04/18 07:37:58;;;;;;;26.03;17.90;;;7.20;99.90;;;;;;5144151;27;20268;-78
2023/04/18 07:51:15;;;;;;;21.37;14.43;;;;;;;;;;5110365;27;20537;-77
2023/04/18 07:56:43;;;;;;;20.87;14.63;;;7.50;99.90;;;;;;5132860;27;20271;-78
2023/04/18 08:02:22;;;;;;;20.40;14.73;;;;;;;;;;5133073;27;20267;-78
2023/04/18 08:06:15;;;;;;;21.83;15.37;;;7.70;99.90;;;;;;5157303;27;20272;-78
2023/04/18 08:08:41;;;;;;;21.27;15.80;;;7.80;99.90;;;;;;5157866;27;20663;-80
2023/04/18 08:11:07;;;;;;;20.33;15.07;;;8.00;99.90;;;;;;5156921;27;20171;-78
2023/04/18 08:13:33;;;;;;;20.33;14.63;;;8.10;99.90;;;;;;5157841;27;20214;-78
2023/04/18 08:16:53;;;;;;;17.47;14.00;;;8.20;99.90;;;;;;5141157;27;20274;-77
2023/04/18 08:21:11;;;;;;;21.83;14.40;;;;;;;;;;5132811;27;20273;-78
2023/04/18 08:25:37;;;;;;;19.53;13.07;;;8.20;99.90;;;;;;5133238;27;20297;-78
2023/04/18 08:29:52;;;;;;;17.67;13.20;;;8.30;99.90;;;;;;5133252;27;20268;-76
2023/04/18 08:32:18;;;;;;;18.30;13.10;;;;;;;;;;5133245;28;20182;-77
2023/04/18 08:34:45;;;;;;;19.23;13.47;;;;;;;;;;5131648;28;20233;-77
2023/04/18 08:37:11;;;;;;;23.87;13.10;;;;;;;;;;5132240;27;20219;-78
2023/04/18 08:39:37;;;;;;;19.77;13.37;;;;;;;;;;5132743;28;20172;-78
2023/04/18 08:42:05;;;;;;;17.40;13.03;;;8.70;99.90;;;;;;5131789;28;20583;-77
2023/04/18 08:44:31;;;;;;;21.30;12.87;;;;;;;;;;5131904;27;20193;-77
2023/04/18 08:46:58;;;;;;;19.40;14.10;;;8.80;99.90;;;;;;5131630;28;20185;-77
2023/04/18 08:49:24;;;;;;;19.77;12.93;;;8.70;99.90;;;;;;5130216;28;20209;-77
2023/04/18 08:51:51;;;;;;;16.27;12.00;;;8.60;99.90;;;;;;5132669;27;20231;-78
2023/04/18 08:54:18;;;;;;;20.47;13.73;;;8.70;99.90;;;;;;5132407;27;20191;-78
2023/04/18 08:56:44;;;;;;;19.73;13.23;;;8.70;99.90;;;;;;5134508;27;20170;-78
2023/04/18 08:59:10;;;;;;;16.07;12.30;;;;;;;;;;5131224;28;20189;-78
2023/04/18 09:01:55;;;;;;;14.33;12.00;;;8.90;99.90;;;;;;5132410;28;20182;-79
2023/04/18 09:04:44;;;;;;;17.57;10.53;;;8.70;99.90;;;;;;5136166;27;20326;-78
2023/04/18 09:07:15;;;;;;;16.03;11.03;;;9.00;99.90;;;;;;5131294;28;20260;-78
2023/04/18 09:09:40;;;;;;;13.37;9.83;;;9.00;99.90;;;;;;5131760;27;20198;-78
2023/04/18 09:12:07;;;;;;;16.57;11.40;;;9.00;99.90;;;;;;5133822;28;20223;-78
2023/04/18 09:14:41;;;;;;;16.37;12.07;;;9.10;99.90;;;;;;5131044;28;20194;-78
2023/04/18 09:17:11;;;;;;;16.07;10.17;;;9.10;99.90;;;;;;5130735;28;20178;-81
2023/04/18 09:19:45;;;;;;;13.53;10.10;;;9.20;99.90;;;;;;5137924;27;20201;-78
2023/04/18 09:22:12;;;;;;;12.50;10.33;;;9.40;99.90;;;;;;5135930;27;20159;-78
2023/04/18 09:24:38;;;;;;;15.57;11.07;;;9.50;99.90;;;;;;5137044;27;20243;-78
2023/04/18 09:27:13;;;;;;;16.63;10.27;;;9.30;99.90;;;;;;5138139;27;20644;-79
2023/04/18 09:29:48;;;;;;;15.77;10.57;;;9.30;99.90;;;;;;5134569;27;20639;-78
2023/04/18 09:32:25;;;;;;;14.23;10.90;;;9.80;99.90;;;;;;5138318;27;20174;-79
2023/04/18 09:35:01;;;;;;;18.37;11.13;;;9.70;99.90;;;;;;5138235;28;20195;-78
2023/04/18 09:37:28;;;;;;;22.70;11.63;;;9.70;99.90;;;;;;5134783;28;20235;-78
2023/04/18 09:39:54;;;;;;;14.03;10.77;;;9.90;99.90;;;;;;5129439;27;20178;-79
2023/04/18 09:42:20;;;;;;;13.57;10.50;;;9.80;99.90;;;;;;5121687;28;20556;-78
2023/04/18 09:45:15;;;;;;;15.27;9.90;;;9.80;99.90;;;;;;5119993;28;20237;-78
2023/04/18 09:47:41;;;;;;;13.10;9.00;;;10.00;99.90;;;;;;5114083;28;20608;-79
2023/04/18 09:50:09;;;;;;;12.77;9.10;;;10.20;99.90;;;;;;5123139;27;20652;-79
2023/04/18 09:52:39;;;;;;;15.13;9.50;;;10.10;99.90;;;;;;5121772;28;20179;-78
2023/04/18 09:55:07;;;;;;;10.87;8.80;;;9.90;99.90;;;;;;5123294;28;20274;-79
2023/04/18 09:57:34;;;;;;;13.83;9.73;;;9.90;99.90;;;;;;5124104;28;20187;-78
2023/04/18 10:00:13;;;;;;;12.70;9.63;;;10.00;99.90;;;;;;5122781;28;20172;-79
2023/04/18 10:02:49;;;;;;;14.37;10.07;;;9.90;99.90;;;;;;5121731;28;20198;-78
2023/04/18 10:05:16;;;;;;;15.67;10.80;;;10.40;99.90;;;;;;5117978;28;20228;-76
2023/04/18 10:07:45;;;;;;;15.73;11.00;;;10.60;99.90;;;;;;5116639;28;20168;-76
2023/04/18 10:10:11;;;;;;;12.93;9.97;;;10.70;99.90;;;;;;5114759;28;20254;-76
2023/04/18 10:12:38;;;;;;;11.70;9.57;;;10.70;99.90;;;;;;5116145;28;20651;-76
2023/04/18 10:15:06;;;;;;;12.80;10.17;;;11.40;99.90;;;;;;5115973;28;20224;-76
2023/04/18 10:17:57;;;;;;;13.67;10.80;;;11.40;99.90;;;;;;5115813;27;20562;-76
2023/04/18 10:20:25;;;;;;;12.57;9.97;;;11.10;99.90;;;;;;5115890;28;20156;-77
2023/04/18 10:22:52;;;;;;;10.93;9.13;;;11.00;99.90;;;;;;5115999;28;20176;-77
2023/04/18 10:25:39;;;;;;;11.53;8.93;;;11.00;99.90;;;;;;5115796;27;20188;-76
2023/04/18 10:28:06;;;;;;;13.67;9.90;;;11.80;99.90;;;;;;5115738;28;20259;-77
2023/04/18 10:30:40;;;;;;;10.60;8.47;;;12.50;99.90;;;;;;5116015;28;20168;-77
2023/04/18 10:33:25;;;;;;;9.37;8.37;;;12.80;99.90;;;;;;5114479;28;20179;-77
2023/04/18 10:35:57;;;;;;;9.77;8.10;;;13.30;99.90;;;;;;5115662;27;20219;-77
2023/04/18 10:38:23;;;;;;;8.13;7.33;;;13.70;99.90;;;;;;5114651;28;20194;-77
2023/04/18 10:40:49;;;;;;;10.87;7.00;;;14.10;99.90;;;;;;5116019;28;20175;-76
2023/04/18 10:43:15;;;;;;;9.30;7.90;;;14.50;99.90;;;;;;5115552;28;20257;-77
2023/04/18 10:45:41;;;;;;;9.00;7.13;;;14.00;99.90;;;;;;5115794;28;20199;-77
2023/04/18 10:48:28;;;;;;;8.73;7.53;;;13.90;99.90;;;;;;5115739;28;20196;-77
2023/04/18 10:51:19;;;;;;;7.73;6.87;;;14.00;99.90;;;;;;5115372;27;20172;-77
2023/04/18 10:53:53;;;;;;;9.10;7.80;;;14.20;99.90;;;;;;5117019;28;20164;-78
2023/04/18 10:56:19;;;;;;;9.47;8.47;;;14.00;99.90;;;;;;5115707;28;20178;-77
2023/04/18 10:58:57;;;;;;;10.23;8.87;;;13.20;99.90;;;;;;5115733;28;20183;-77
2023/04/18 11:01:28;;;;;;;10.73;8.73;;;13.00;99.90;;;;;;5115132;28;20619;-77
2023/04/18 11:03:54;;;;;;;10.77;9.17;;;13.10;99.90;;;;;;5119020;27;20177;-78
2023/04/18 11:06:21;;;;;;;12.03;8.83;;;13.50;99.90;;;;;;5116126;28;20194;-78
2023/04/18 11:08:48;;;;;;;10.13;8.90;;;14.00;99.90;;;;;;5118744;28;20338;-79
2023/04/18 11:11:14;;;;;;;11.60;9.60;;;14.70;99.90;;;;;;5117621;28;20176;-79
2023/04/18 11:13:56;;;;;;;9.40;8.50;;;14.90;99.90;;;;;;5117121;28;20191;-78
2023/04/18 11:16:30;;;;;;;9.50;8.20;;;15.10;99.90;;;;;;5116710;28;20173;-78
2023/04/18 11:18:56;;;;;;;9.20;8.30;;;14.90;99.90;;;;;;5118171;28;20739;-78
2023/04/18 11:21:28;;;;;;;15.60;8.07;;;14.80;99.90;;;;;;5118580;28;20230;-79
2023/04/18 11:23:57;;;;;;;15.83;8.90;;;15.10;99.90;;;;;;5118054;28;20543;-80
2023/04/18 11:26:27;;;;;;;10.57;8.17;;;14.70;99.90;;;;;;5118420;28;20231;-79
2023/04/18 11:28:57;;;;;;;11.00;9.20;;;14.40;99.90;;;;;;5117200;28;20317;-80
2023/04/18 11:31:23;;;;;;;10.93;8.93;;;14.50;99.90;;;;;;5119041;28;20239;-79
2023/04/18 11:33:55;;;;;;;9.63;8.57;;;14.40;99.90;;;;;;5117212;28;20204;-79
2023/04/18 11:36:20;;;;;;;8.87;7.77;;;14.10;99.90;;;;;;5118778;28;20236;-79
2023/04/18 11:38:46;;;;;;;8.17;7.37;;;14.10;99.90;;;;;;5117691;28;20211;-80
2023/04/18 11:41:16;;;;;;;9.07;8.03;;;14.30;99.90;;;;;;5116068;28;20186;-80
2023/04/18 11:43:45;;;;;;;10.90;8.10;;;15.20;99.90;;;;;;5115005;28;20200;-80
2023/04/18 11:46:12;;;;;;;8.63;7.73;;;15.50;99.90;;;;;;5116901;28;20254;-80
2023/04/18 11:48:44;;;;;;;8.30;7.43;;;15.70;99.90;;;;;;5132860;27;20201;-80
2023/04/18 11:51:33;;;;;;;8.30;7.50;;;15.80;99.90;;;;;;5140342;27;20535;-80
2023/04/18 11:53:58;;;;;;;11.00;7.53;;;15.50;99.90;;;;;;5138583;27;20216;-80
2023/04/18 11:56:24;;;;;;;7.50;6.80;;;14.40;99.90;;;;;;5139450;27;20634;-80
2023/04/18 11:58:50;;;;;;;12.87;7.27;;;13.80;99.90;;;;;;5140671;27;20168;-81
2023/04/18 12:01:21;;;;;;;8.53;7.27;;;13.50;99.90;;;;;;5138628;27;20188;-80
2023/04/18 12:04:04;;;;;;;10.60;9.17;;;12.80;99.90;;;;;;5137310;27;20202;-81
2023/04/18 12:06:59;;;;;;;8.07;6.97;;;12.30;99.90;;;;;;5138773;27;20274;-78
2023/04/18 12:09:25;;;;;;;8.07;6.50;;;12.00;99.90;;;;;;5125300;27;20221;-78
2023/04/18 12:12:01;;;;;;;7.33;6.27;;;11.60;99.90;;;;;;5138095;27;20279;-79
2023/04/18 12:14:28;;;;;;;13.63;7.03;;;11.30;99.90;;;;;;5137043;27;20551;-77
2023/04/18 12:16:54;;;;;;;7.83;6.70;;;11.40;99.90;;;;;;5138165;27;20190;-78
2023/04/18 12:19:26;;;;;;;8.27;6.87;;;11.50;99.90;;;;;;5138887;27;20684;-79
2023/04/18 12:21:59;;;;;;;8.80;7.30;;;11.60;99.90;;;;;;5136691;27;20180;-78
2023/04/18 12:24:25;;;;;;;8.37;6.97;;;11.60;99.90;;;;;;5140442;27;20206;-79
2023/04/18 12:26:52;;;;;;;7.60;6.43;;;11.70;99.90;;;;;;5141853;28;20164;-79
2023/04/18 12:29:17;;;;;;;7.57;6.03;;;12.60;99.90;;;;;;5138686;28;20218;-78
2023/04/18 12:31:43;;;;;;;7.90;7.10;;;14.20;99.90;;;;;;5137252;28;20541;-79
2023/04/18 12:34:09;;;;;;;7.37;5.90;;;15.80;99.90;;;;;;5138106;28;20198;-78
2023/04/18 12:36:35;;;;;;;7.27;6.17;;;15.90;99.90;;;;;;5135898;28;20644;-77
2023/04/18 12:39:01;;;;;;;6.70;6.00;;;16.30;99.90;;;;;;5135830;28;20206;-78
2023/04/18 12:41:26;;;;;;;6.10;5.30;;;16.90;99.90;;;;;;5137987;28;20617;-79
2023/04/18 12:43:52;;;;;;;6.73;6.03;;;16.60;99.90;;;;;;5138255;28;20170;-78
2023/04/18 12:46:18;;;;;;;6.07;5.47;;;15.20;99.90;;;;;;5135103;28;20272;-78
2023/04/18 12:48:44;;;;;;;6.97;6.27;;;14.20;99.90;;;;;;5135697;28;20199;-78
2023/04/18 12:51:09;;;;;;;7.27;5.67;;;13.90;99.90;;;;;;5139462;28;20252;-78
2023/04/18 12:53:35;;;;;;;7.37;5.53;;;13.90;99.90;;;;;;5138430;28;20197;-81
2023/04/18 12:56:01;;;;;;;7.60;5.87;;;13.70;99.90;;;;;;5141260;28;20192;-79
2023/04/18 12:58:27;;;;;;;6.33;5.53;;;13.50;99.90;;;;;;5139963;28;20181;-79
2023/04/18 13:00:52;;;;;;;5.83;5.23;;;13.40;99.90;;;;;;5142823;28;20238;-81
2023/04/18 13:03:18;;;;;;;6.90;6.10;;;13.70;99.90;;;;;;5137489;28;20740;-80
2023/04/18 13:05:44;;;;;;;6.73;5.70;;;13.50;99.90;;;;;;5138851;28;20197;-79
2023/04/18 13:08:10;;;;;;;7.80;6.33;;;12.60;99.90;;;;;;5139410;28;20214;-79
2023/04/18 13:10:36;;;;;;;6.70;5.73;;;12.20;99.90;;;;;;5140264;28;20634;-79
2023/04/18 13:13:02;;;;;;;6.90;6.20;;;12.00;99.90;;;;;;5139469;28;20472;-80
2023/04/18 13:15:27;;;;;;;7.10;6.40;;;11.80;99.90;;;;;;5139962;27;20202;-79
2023/04/18 13:17:57;;;;;;;7.53;6.73;;;11.60;99.90;;;;;;5143922;27;20171;-80
2023/04/18 13:20:23;;;;;;;8.20;7.03;;;11.50;99.90;;;;;;5141650;27;20180;-79
2023/04/18 13:22:48;;;;;;;7.83;6.53;;;11.40;99.90;;;;;;5143566;27;20167;-79
2023/04/18 13:25:15;;;;;;;8.10;6.73;;;11.40;99.90;;;;;;5141499;27;20255;-80
2023/04/18 13:27:41;;;;;;;7.50;6.50;;;11.60;99.90;;;;;;5141465;27;20171;-79
2023/04/18 13:30:10;;;;;;;9.57;6.83;;;11.80;99.90;;;;;;5140742;27;20200;-79
2023/04/18 13:32:36;;;;;;;10.13;7.63;;;11.90;99.90;;;;;;5140490;27;20709;-79
2023/04/18 13:35:02;;;;;;;7.93;6.77;;;12.00;99.90;;;;;;5141318;27;20187;-79
2023/04/18 13:37:28;;;;;;;7.17;6.17;;;11.90;99.90;;;;;;5140031;27;20341;-79
2023/04/18 13:39:54;;;;;;;7.00;6.07;;;11.90;99.90;;;;;;5141642;27;20639;-79
2023/04/18 13:42:19;;;;;;;8.00;6.33;;;12.30;99.90;;;;;;5140806;27;20179;-80
2023/04/18 13:44:46;;;;;;;9.57;6.90;;;12.80;99.90;;;;;;5140417;27;20205;-80
2023/04/18 13:47:12;;;;;;;7.93;6.00;;;13.10;99.90;;;;;;5143430;27;20175;-79
2023/04/18 13:49:37;;;;;;;7.60;5.87;;;14.50;99.90;;;;;;5142061;27;20572;-79
2023/04/18 13:52:03;;;;;;;6.50;5.83;;;15.90;99.90;;;;;;5140506;27;20176;-80
2023/04/18 13:54:30;;;;;;;5.90;5.30;;;15.70;99.90;;;;;;5140683;27;20660;-79
2023/04/18 13:56:58;;;;;;;6.23;5.17;;;15.20;99.90;;;;;;5139928;27;20514;-79
2023/04/18 13:59:25;;;;;;;6.90;6.20;;;14.10;99.90;;;;;;5140748;27;20614;-79
2023/04/18 14:01:52;;;;;;;8.47;6.43;;;13.40;99.90;;;;;;5138977;27;20182;-79
2023/04/18 14:04:19;;;;;;;6.97;6.10;;;12.90;99.90;;;;;;5139468;27;20682;-79
2023/04/18 14:06:45;;;;;;;6.00;5.27;;;12.50;99.90;;;;;;5139516;27;20561;-79
2023/04/18 14:09:10;;;;;;;6.70;5.73;;;12.30;99.90;;;;;;5138048;27;20673;-78
2023/04/18 14:11:36;;;;;;;7.93;5.63;;;12.60;99.90;;;;;;5138335;27;20171;-79
2023/04/18 14:14:02;;;;;;;7.93;5.63;;;13.50;99.90;;;;;;5137527;27;20278;-80
2023/04/18 14:16:32;;;;;;;6.70;5.50;;;14.90;99.90;;;;;;5137972;27;20239;-80
2023/04/18 14:18:58;;;;;;;6.57;5.63;;;15.10;99.90;;;;;;5142885;27;20534;-80
2023/04/18 14:21:25;;;;;;;5.87;5.27;;;15.10;99.90;;;;;;5144509;27;20228;-81
2023/04/18 14:23:51;;;;;;;5.90;5.20;;;15.70;99.90;;;;;;5140783;27;20208;-80
2023/04/18 14:26:17;;;;;;;8.20;5.03;;;16.30;99.90;;;;;;5142876;27;20249;-81
2023/04/18 14:28:44;;;;;;;5.57;4.00;;;16.30;99.90;;;;;;5142516;27;20209;-81
2023/04/18 14:31:11;;;;;;;4.90;4.40;;;16.40;99.90;;;;;;5142416;27;20199;-81
2023/04/18 14:33:37;;;;;;;5.17;4.40;;;16.70;99.90;;;;;;5142774;27;20171;-80
2023/04/18 14:36:03;;;;;;;5.90;4.73;;;16.80;99.90;;;;;;5142933;27;20166;-80
2023/04/18 14:38:29;;;;;;;4.80;4.40;;;17.00;99.90;;;;;;5141925;27;20182;-80
2023/04/18 14:40:56;;;;;;;5.00;4.50;;;16.40;99.90;;;;;;5141834;27;20177;-81
2023/04/18 14:43:22;;;;;;;6.17;4.30;;;15.90;99.90;;;;;;5143329;27;20175;-81
2023/04/18 14:45:47;;;;;;;5.90;4.97;;;16.20;99.90;;;;;;5140606;27;20649;-80
2023/04/18 14:48:13;;;;;;;7.00;4.63;;;16.30;99.90;;;;;;5142499;27;20213;-81
2023/04/18 14:50:39;;;;;;;4.40;4.00;;;16.40;99.90;;;;;;5141357;27;20210;-80
2023/04/18 14:53:05;;;;;;;4.80;4.30;;;16.20;99.90;;;;;;5143759;27;20167;-80
2023/04/18 14:55:32;;;;;;;4.50;4.10;;;16.40;99.90;;;;;;5143444;27;20530;-80
2023/04/18 14:57:58;;;;;;;5.17;4.67;;;16.70;99.90;;;;;;5141467;27;20640;-80
2023/04/18 15:00:24;;;;;;;5.80;4.47;;;16.60;99.90;;;;;;5141516;27;20239;-81
2023/04/18 15:02:50;;;;;;;5.70;3.90;;;16.00;99.90;;;;;;5143559;27;20171;-80
2023/04/18 15:05:16;;;;;;;4.43;4.03;;;15.90;99.90;;;;;;5142613;27;20259;-80
2023/04/18 15:07:43;;;;;;;5.27;4.77;;;15.60;99.90;;;;;;5143382;27;20315;-80
2023/04/18 15:10:11;;;;;;;4.97;4.47;;;15.60;99.90;;;;;;5142160;27;20207;-80
2023/04/18 15:12:38;;;;;;;6.23;4.33;;;15.40;99.90;;;;;;5142193;27;20178;-80
2023/04/18 15:15:05;;;;;;;5.13;4.30;;;15.10;99.90;;;;;;5142564;27;20251;-80
2023/04/18 15:17:30;;;;;;;4.87;4.40;;;14.80;99.90;;;;;;5138236;27;20611;-78
2023/04/18 15:19:57;;;;;;;5.13;4.63;;;14.30;99.90;;;;;;5138922;27;20162;-80
2023/04/18 15:22:23;;;;;;;8.10;4.67;;;13.50;99.90;;;;;;5140267;27;20201;-79
2023/04/18 15:24:49;;;;;;;6.40;4.77;;;12.90;99.90;;;;;;5140776;27;20189;-79
2023/04/18 15:27:15;;;;;;;6.33;5.00;;;12.40;99.90;;;;;;5138490;27;20197;-78
2023/04/18 15:29:40;;;;;;;6.60;5.00;;;11.90;99.90;;;;;;5140466;27;20208;-79
2023/04/18 15:32:06;;;;;;;5.27;4.47;;;11.60;99.90;;;;;;5139042;27;20652;-80
2023/04/18 15:34:32;;;;;;;6.53;5.37;;;11.40;99.90;;;;;;5141089;27;20202;-79
2023/04/18 15:36:58;;;;;;;5.77;5.13;;;11.20;99.90;;;;;;5139721;27;20650;-79
2023/04/18 15:39:23;;;;;;;9.23;5.67;;;11.10;99.90;;;;;;5140882;27;20202;-80
2023/04/18 15:41:53;;;;;;;6.43;5.03;;;11.10;99.90;;;;;;5140712;27;20163;-78
2023/04/18 15:44:19;;;;;;;6.40;5.27;;;11.10;99.90;;;;;;5140478;27;20222;-79
2023/04/18 15:46:45;;;;;;;6.83;5.73;;;11.00;99.90;;;;;;5139630;27;20176;-79
2023/04/18 15:49:11;;;;;;;7.30;5.50;;;11.00;99.90;;;;;;5139368;27;20285;-80
2023/04/18 15:51:36;;;;;;;6.63;5.40;;;10.80;99.90;;;;;;5139277;27;20588;-82
2023/04/18 15:54:02;;;;;;;5.83;5.20;;;10.70;99.90;;;;;;5140020;27;20191;-80
2023/04/18 15:56:29;;;;;;;6.00;5.40;;;10.60;99.90;;;;;;5137412;27;20170;-79
2023/04/18 15:58:56;;;;;;;7.60;5.90;;;10.50;99.90;;;;;;5140592;27;20187;-80
2023/04/18 16:01:21;;;;;;;9.37;5.63;;;10.40;99.90;;;;;;5138116;27;20193;-80
2023/04/18 16:03:47;;;;;;;7.97;5.57;;;10.40;99.90;;;;;;5138898;27;20175;-80
2023/04/18 16:06:14;;;;;;;8.30;5.83;;;10.40;99.90;;;;;;5139163;27;20175;-79
2023/04/18 16:29:16;;;;;;;6.50;4.87;;;;;;;;;;5138491;27;20275;-80
2023/04/18 16:36:18;;;;;;;9.23;5.73;;;9.90;99.90;;;;;;5159161;27;20274;-81
2023/04/18 16:44:34;;;;;;;6.67;5.50;;;9.40;99.90;;;;;;5137847;27;20283;-80
2023/04/18 17:00:32;;;;;;;9.63;6.33;;;9.10;99.90;;;;;;5114996;27;20780;-79
